createdAt,value
2018-03-26T00:00:48.637Z,0.00
2018-03-26T00:01:48.576Z,0.00
2018-03-26T00:02:48.556Z,0.00
2018-03-26T00:03:48.913Z,0.00
2018-03-26T00:04:48.698Z,0.00
2018-03-26T00:05:48.576Z,0.00
2018-03-26T00:06:48.483Z,0.00
2018-03-26T00:07:48.460Z,0.00
2018-03-26T00:08:48.433Z,0.00
2018-03-26T00:09:48.822Z,0.00
2018-03-26T00:10:48.410Z,0.00
2018-03-26T00:11:48.378Z,0.00
2018-03-26T00:12:48.427Z,0.00
2018-03-26T00:13:48.348Z,0.00
2018-03-26T00:14:48.432Z,0.00
2018-03-26T00:15:48.304Z,0.00
2018-03-26T00:16:48.607Z,0.00
2018-03-26T00:17:48.282Z,0.00
2018-03-26T00:18:48.251Z,0.00
2018-03-26T00:19:48.240Z,0.00
2018-03-26T00:20:48.266Z,0.00
2018-03-26T00:21:48.221Z,0.00
2018-03-26T00:22:48.189Z,0.00
2018-03-26T00:23:48.460Z,0.00
2018-03-26T00:24:48.150Z,0.00
2018-03-26T00:25:48.476Z,0.00
2018-03-26T00:26:48.207Z,0.00
2018-03-26T00:27:48.090Z,0.00
2018-03-26T00:28:48.079Z,0.00
2018-03-26T00:29:48.146Z,0.00
2018-03-26T00:30:48.331Z,0.00
2018-03-26T00:31:48.070Z,0.00
2018-03-26T00:32:47.995Z,0.00
2018-03-26T00:33:47.967Z,0.00
2018-03-26T00:34:47.974Z,0.00
2018-03-26T00:35:47.960Z,0.00
2018-03-26T00:36:47.973Z,0.00
2018-03-26T00:37:48.197Z,0.00
2018-03-26T00:38:47.996Z,0.00
2018-03-26T00:39:47.872Z,0.00
2018-03-26T00:40:47.838Z,0.00
2018-03-26T00:41:47.822Z,0.00
2018-03-26T00:42:47.804Z,0.00
2018-03-26T00:43:47.790Z,0.00
2018-03-26T00:44:48.123Z,0.00
2018-03-26T00:45:47.748Z,0.00
2018-03-26T00:46:47.729Z,0.00
2018-03-26T00:47:47.865Z,0.00
2018-03-26T00:48:47.747Z,0.00
2018-03-26T00:49:47.683Z,0.00
2018-03-26T00:50:47.711Z,0.00
2018-03-26T00:51:48.041Z,0.00
2018-03-26T00:52:47.626Z,0.00
2018-03-26T00:53:47.594Z,0.00
2018-03-26T00:54:47.644Z,0.00
2018-03-26T00:55:47.560Z,0.00
2018-03-26T00:56:47.629Z,0.00
2018-03-26T00:57:48.003Z,0.00
2018-03-26T00:58:47.729Z,0.00
2018-03-26T00:59:47.482Z,0.00
2018-03-26T01:00:47.480Z,0.00
2018-03-26T01:01:47.443Z,0.00
2018-03-26T01:02:47.439Z,0.00
2018-03-26T01:03:47.775Z,0.00
2018-03-26T01:04:47.396Z,0.00
2018-03-26T01:05:47.367Z,0.00
2018-03-26T01:06:47.350Z,0.00
2018-03-26T01:07:48.053Z,0.00
2018-03-26T01:08:47.319Z,0.00
2018-03-26T01:09:47.711Z,0.00
2018-03-26T01:10:47.299Z,0.00
2018-03-26T01:11:47.267Z,0.00
2018-03-26T01:12:47.239Z,0.00
2018-03-26T01:14:47.321Z,0.00
2018-03-26T01:15:47.181Z,0.00
2018-03-26T01:16:47.470Z,0.00
2018-03-26T01:17:47.155Z,0.00
2018-03-26T01:18:47.125Z,0.00
2018-03-26T01:19:47.213Z,0.00
2018-03-26T01:20:47.093Z,0.00
2018-03-26T01:21:47.070Z,0.00
2018-03-26T01:22:47.464Z,0.00
2018-03-26T01:23:47.145Z,0.00
2018-03-26T01:24:47.118Z,0.00
2018-03-26T01:25:47.053Z,0.00
2018-03-26T01:26:46.981Z,0.00
2018-03-26T01:27:46.965Z,0.00
2018-03-26T01:28:47.336Z,0.00
2018-03-26T01:29:46.921Z,0.00
2018-03-26T01:30:46.896Z,0.00
2018-03-26T01:31:46.940Z,0.00
2018-03-26T01:32:46.870Z,0.00
2018-03-26T01:33:46.939Z,0.00
2018-03-26T01:34:47.274Z,0.00
2018-03-26T01:35:46.803Z,0.00
2018-03-26T01:36:46.792Z,0.00
2018-03-26T01:37:46.814Z,0.00
2018-03-26T01:38:46.746Z,0.00
2018-03-26T01:39:46.827Z,0.00
2018-03-26T01:40:46.706Z,0.00
2018-03-26T01:41:46.983Z,0.00
2018-03-26T01:42:46.731Z,0.00
2018-03-26T01:43:46.650Z,0.00
2018-03-26T01:44:46.625Z,0.00
2018-03-26T01:45:46.606Z,0.00
2018-03-26T01:46:46.594Z,0.00
2018-03-26T01:47:46.679Z,0.00
2018-03-26T01:48:46.861Z,0.00
2018-03-26T01:49:46.600Z,0.00
2018-03-26T01:50:46.521Z,0.00
2018-03-26T01:51:46.517Z,0.00
2018-03-26T01:52:46.564Z,0.00
2018-03-26T01:53:46.511Z,0.00
2018-03-26T01:55:46.775Z,0.00
2018-03-26T01:56:46.517Z,0.00
2018-03-26T01:57:46.385Z,0.00
2018-03-26T01:58:46.431Z,0.00
2018-03-26T02:00:46.427Z,0.00
2018-03-26T02:01:46.323Z,0.00
2018-03-26T02:02:46.618Z,0.00
2018-03-26T02:03:46.319Z,0.00
2018-03-26T02:04:46.320Z,0.00
2018-03-26T02:05:46.348Z,0.00
2018-03-26T02:07:46.343Z,0.00
2018-03-26T02:08:46.182Z,0.00
2018-03-26T02:09:46.468Z,0.00
2018-03-26T02:10:46.144Z,0.00
2018-03-26T02:11:46.222Z,0.00
2018-03-26T02:12:46.096Z,0.00
2018-03-26T02:13:46.277Z,0.00
2018-03-26T02:14:46.069Z,0.00
2018-03-26T02:15:46.058Z,0.00
2018-03-26T02:16:46.380Z,0.00
2018-03-26T02:17:46.037Z,0.00
2018-03-26T02:18:45.980Z,0.00
2018-03-26T02:19:45.977Z,0.00
2018-03-26T02:20:45.953Z,0.00
2018-03-26T02:21:46.029Z,0.00
2018-03-26T02:23:46.206Z,0.00
2018-03-26T02:24:45.881Z,0.00
2018-03-26T02:25:45.866Z,0.00
2018-03-26T02:26:45.832Z,0.00
2018-03-26T02:27:45.961Z,0.00
2018-03-26T02:28:45.800Z,0.00
2018-03-26T02:29:46.077Z,0.00
2018-03-26T02:30:45.758Z,0.00
2018-03-26T02:31:45.832Z,0.00
2018-03-26T02:32:45.721Z,0.00
2018-03-26T02:33:45.712Z,0.00
2018-03-26T02:34:45.687Z,0.00
2018-03-26T02:35:45.963Z,0.00
2018-03-26T02:36:45.749Z,0.00
2018-03-26T02:37:45.632Z,0.00
2018-03-26T02:38:45.600Z,0.00
2018-03-26T02:39:45.592Z,0.00
2018-03-26T02:40:45.576Z,0.00
2018-03-26T02:41:45.907Z,0.00
2018-03-26T02:42:45.531Z,0.00
2018-03-26T02:43:45.517Z,0.00
2018-03-26T02:44:45.493Z,0.00
2018-03-26T02:45:45.474Z,0.00
2018-03-26T02:46:46.050Z,0.00
2018-03-26T02:47:45.742Z,0.00
2018-03-26T02:48:45.420Z,0.00
2018-03-26T02:49:45.401Z,0.00
2018-03-26T02:50:45.379Z,0.00
2018-03-26T02:51:45.367Z,0.00
2018-03-26T02:52:45.386Z,0.00
2018-03-26T02:53:45.620Z,0.00
2018-03-26T02:54:45.312Z,0.00
2018-03-26T02:55:45.286Z,0.00
2018-03-26T02:56:45.359Z,0.00
2018-03-26T02:57:45.306Z,0.00
2018-03-26T02:58:45.230Z,0.00
2018-03-26T02:59:45.513Z,0.00
2018-03-26T03:00:45.238Z,0.00
2018-03-26T03:02:45.151Z,0.00
2018-03-26T03:03:45.205Z,0.00
2018-03-26T03:04:45.112Z,0.00
2018-03-26T03:05:45.171Z,0.00
2018-03-26T03:06:45.417Z,0.00
2018-03-26T03:07:45.040Z,0.00
2018-03-26T03:08:45.034Z,0.00
2018-03-26T03:09:45.005Z,0.00
2018-03-26T03:10:45.150Z,0.00
2018-03-26T03:11:45.019Z,0.00
2018-03-26T03:12:44.947Z,0.00
2018-03-26T03:13:45.237Z,0.00
2018-03-26T03:14:45.133Z,0.00
2018-03-26T03:15:44.898Z,0.00
2018-03-26T03:16:44.897Z,0.00
2018-03-26T03:17:44.962Z,0.00
2018-03-26T03:18:44.907Z,0.00
2018-03-26T03:19:44.824Z,0.00
2018-03-26T03:20:45.092Z,0.00
2018-03-26T03:21:44.909Z,0.00
2018-03-26T03:22:44.856Z,0.00
2018-03-26T03:23:44.733Z,0.00
2018-03-26T03:24:44.766Z,0.00
2018-03-26T03:25:44.696Z,0.00
2018-03-26T03:26:44.683Z,0.00
2018-03-26T03:27:45.009Z,0.00
2018-03-26T03:28:44.749Z,0.00
2018-03-26T03:29:44.651Z,0.00
2018-03-26T03:30:44.691Z,0.00
2018-03-26T03:31:44.602Z,0.00
2018-03-26T03:32:44.859Z,0.00
2018-03-26T03:33:44.904Z,0.00
2018-03-26T03:34:44.831Z,0.00
2018-03-26T03:35:44.506Z,0.00
2018-03-26T03:36:44.537Z,0.00
2018-03-26T03:37:44.456Z,0.00
2018-03-26T03:38:44.444Z,0.00
2018-03-26T03:39:44.433Z,0.00
2018-03-26T03:40:44.404Z,0.00
2018-03-26T03:41:44.739Z,0.00
2018-03-26T03:42:44.368Z,0.00
2018-03-26T03:43:44.440Z,0.00
2018-03-26T03:44:44.327Z,0.00
2018-03-26T03:45:44.312Z,0.00
2018-03-26T03:46:44.300Z,0.00
2018-03-26T03:47:44.369Z,0.00
2018-03-26T03:48:44.549Z,0.00
2018-03-26T03:49:44.227Z,0.00
2018-03-26T03:50:44.358Z,0.00
2018-03-26T03:51:44.267Z,0.00
2018-03-26T03:52:44.170Z,0.00
2018-03-26T03:53:44.156Z,0.00
2018-03-26T03:54:44.437Z,0.00
2018-03-26T03:55:44.163Z,0.00
2018-03-26T03:56:44.190Z,0.00
2018-03-26T03:57:44.069Z,0.00
2018-03-26T03:58:44.056Z,0.00
2018-03-26T03:59:44.036Z,0.00
2018-03-26T04:00:44.322Z,0.00
2018-03-26T04:01:44.097Z,0.00
2018-03-26T04:02:43.992Z,0.00
2018-03-26T04:03:43.963Z,0.00
2018-03-26T04:04:44.340Z,0.00
2018-03-26T04:05:43.964Z,0.00
2018-03-26T04:06:44.300Z,0.00
2018-03-26T04:07:43.874Z,0.00
2018-03-26T04:08:43.863Z,0.00
2018-03-26T04:09:43.839Z,0.00
2018-03-26T04:10:43.913Z,0.00
2018-03-26T04:11:43.816Z,0.00
2018-03-26T04:12:44.124Z,0.00
2018-03-26T04:13:43.803Z,0.00
2018-03-26T04:14:43.737Z,0.00
2018-03-26T04:15:43.719Z,0.00
2018-03-26T04:16:43.704Z,0.00
2018-03-26T04:18:43.964Z,0.00
2018-03-26T04:19:43.650Z,0.00
2018-03-26T04:20:43.626Z,0.00
2018-03-26T04:21:43.606Z,0.00
2018-03-26T04:22:43.691Z,0.00
2018-03-26T04:23:43.614Z,0.00
2018-03-26T04:24:43.839Z,0.00
2018-03-26T04:25:43.730Z,0.00
2018-03-26T04:26:43.498Z,0.00
2018-03-26T04:27:43.489Z,0.00
2018-03-26T04:28:43.560Z,0.00
2018-03-26T04:29:43.449Z,0.00
2018-03-26T04:30:43.531Z,0.00
2018-03-26T04:31:43.708Z,0.00
2018-03-26T04:32:43.488Z,0.00
2018-03-26T04:33:43.374Z,0.00
2018-03-26T04:34:43.347Z,0.00
2018-03-26T04:35:43.377Z,0.00
2018-03-26T04:36:43.315Z,0.00
2018-03-26T04:37:43.585Z,0.00
2018-03-26T04:38:43.267Z,0.00
2018-03-26T04:39:43.244Z,0.00
2018-03-26T04:40:43.289Z,0.00
2018-03-26T04:42:43.198Z,0.00
2018-03-26T04:43:43.172Z,0.00
2018-03-26T04:44:43.452Z,0.00
2018-03-26T04:45:43.143Z,0.00
2018-03-26T04:46:43.248Z,0.00
2018-03-26T04:47:43.099Z,0.00
2018-03-26T04:48:43.072Z,0.00
2018-03-26T04:49:43.052Z,0.00
2018-03-26T04:50:43.034Z,0.00
2018-03-26T04:51:43.308Z,0.00
2018-03-26T04:52:43.086Z,0.00
2018-03-26T04:53:42.972Z,0.00
2018-03-26T04:54:42.963Z,0.00
2018-03-26T04:55:42.947Z,0.00
2018-03-26T04:56:42.917Z,0.00
2018-03-26T04:57:43.197Z,0.00
2018-03-26T04:58:42.926Z,0.00
2018-03-26T04:59:42.950Z,0.00
2018-03-26T05:00:42.846Z,0.00
2018-03-26T05:01:42.820Z,0.00
2018-03-26T05:02:42.799Z,0.00
2018-03-26T05:03:42.982Z,0.00
2018-03-26T05:04:43.658Z,0.00
2018-03-26T05:05:42.737Z,0.00
2018-03-26T05:06:42.727Z,0.00
2018-03-26T05:07:42.693Z,0.00
2018-03-26T05:08:42.677Z,0.00
2018-03-26T05:09:42.763Z,5.63
2018-03-26T05:10:42.743Z,5.63
2018-03-26T05:11:42.985Z,5.63
2018-03-26T05:12:42.593Z,5.63
2018-03-26T05:13:42.581Z,5.63
2018-03-26T05:14:42.552Z,5.63
2018-03-26T05:15:42.536Z,11.25
2018-03-26T05:16:42.614Z,11.25
2018-03-26T05:17:42.801Z,11.25
2018-03-26T05:18:42.471Z,11.25
2018-03-26T05:19:42.459Z,11.25
2018-03-26T05:20:42.439Z,11.25
2018-03-26T05:21:42.469Z,11.25
2018-03-26T05:22:42.444Z,16.88
2018-03-26T05:23:42.685Z,16.88
2018-03-26T05:24:42.369Z,16.88
2018-03-26T05:25:42.343Z,16.88
2018-03-26T05:26:42.331Z,16.88
2018-03-26T05:27:42.354Z,16.88
2018-03-26T05:28:42.295Z,22.50
2018-03-26T05:29:42.574Z,22.50
2018-03-26T05:30:42.247Z,22.50
2018-03-26T05:31:42.219Z,22.50
2018-03-26T05:32:42.320Z,22.50
2018-03-26T05:33:42.182Z,22.50
2018-03-26T05:34:42.160Z,22.50
2018-03-26T05:35:42.544Z,22.50
2018-03-26T05:36:42.134Z,22.50
2018-03-26T05:37:42.110Z,28.13
2018-03-26T05:38:42.079Z,28.13
2018-03-26T05:39:42.051Z,28.13
2018-03-26T05:40:42.032Z,28.13
2018-03-26T05:41:42.381Z,28.13
2018-03-26T05:42:41.997Z,28.13
2018-03-26T05:43:42.003Z,33.75
2018-03-26T05:44:41.962Z,33.75
2018-03-26T05:45:41.938Z,33.75
2018-03-26T05:46:41.928Z,33.75
2018-03-26T05:47:41.955Z,39.38
2018-03-26T05:48:41.881Z,39.38
2018-03-26T05:49:41.861Z,45.00
2018-03-26T05:50:41.887Z,45.00
2018-03-26T05:51:41.918Z,45.00
2018-03-26T05:52:41.807Z,45.00
2018-03-26T05:53:42.137Z,45.00
2018-03-26T05:54:41.807Z,45.00
2018-03-26T05:55:41.897Z,45.00
2018-03-26T05:56:41.804Z,45.00
2018-03-26T05:57:41.910Z,45.00
2018-03-26T05:58:41.971Z,45.00
2018-03-26T05:59:42.017Z,45.00
2018-03-26T06:00:42.333Z,45.00
2018-03-26T06:01:41.932Z,45.00
2018-03-26T06:02:41.816Z,50.63
2018-03-26T06:03:41.835Z,50.63
2018-03-26T06:04:41.852Z,56.25
2018-03-26T06:05:41.704Z,56.25
2018-03-26T06:06:42.026Z,56.25
2018-03-26T06:07:41.505Z,61.88
2018-03-26T06:08:41.534Z,61.88
2018-03-26T06:10:41.442Z,67.50
2018-03-26T06:11:41.419Z,78.75
2018-03-26T06:12:41.429Z,78.75
2018-03-26T06:13:41.686Z,90.00
2018-03-26T06:14:41.467Z,95.63
2018-03-26T06:15:41.396Z,95.63
2018-03-26T06:16:41.370Z,95.63
2018-03-26T06:17:41.302Z,101.25
2018-03-26T06:18:41.297Z,101.25
2018-03-26T06:19:41.264Z,112.50
2018-03-26T06:20:41.545Z,106.88
2018-03-26T06:21:41.384Z,118.13
2018-03-26T06:22:41.291Z,129.38
2018-03-26T06:23:41.186Z,112.50
2018-03-26T06:24:41.247Z,123.75
2018-03-26T06:25:41.187Z,140.63
2018-03-26T06:26:41.428Z,123.75
2018-03-26T06:27:41.178Z,135.00
2018-03-26T06:28:41.162Z,146.25
2018-03-26T06:29:41.145Z,140.63
2018-03-26T06:30:41.251Z,135.00
2018-03-26T06:31:41.082Z,146.25
2018-03-26T06:32:41.312Z,135.00
2018-03-26T06:33:40.991Z,129.38
2018-03-26T06:34:41.314Z,129.38
2018-03-26T06:35:40.946Z,129.38
2018-03-26T06:36:41.972Z,135.00
2018-03-26T06:37:40.893Z,140.63
2018-03-26T06:38:40.896Z,151.88
2018-03-26T06:39:41.169Z,163.13
2018-03-26T06:40:40.851Z,157.50
2018-03-26T06:41:40.822Z,151.88
2018-03-26T06:42:40.952Z,157.50
2018-03-26T06:43:40.778Z,151.88
2018-03-26T06:44:40.771Z,157.50
2018-03-26T06:45:41.183Z,168.75
2018-03-26T06:46:41.281Z,157.50
2018-03-26T06:47:40.811Z,163.13
2018-03-26T06:48:40.793Z,151.88
2018-03-26T06:49:40.661Z,168.75
2018-03-26T06:50:41.011Z,174.38
2018-03-26T06:51:40.634Z,180.00
2018-03-26T06:52:40.756Z,185.63
2018-03-26T06:53:40.585Z,185.63
2018-03-26T06:54:40.564Z,180.00
2018-03-26T06:55:40.547Z,168.75
2018-03-26T06:56:40.832Z,151.88
2018-03-26T06:57:40.550Z,163.13
2018-03-26T06:58:40.491Z,174.38
2018-03-26T06:59:40.471Z,202.50
2018-03-26T07:00:40.561Z,208.13
2018-03-26T07:01:40.429Z,208.13
2018-03-26T07:02:40.455Z,213.75
2018-03-26T07:03:40.735Z,213.75
2018-03-26T07:04:40.367Z,208.13
2018-03-26T07:05:40.410Z,213.75
2018-03-26T07:06:40.346Z,225.00
2018-03-26T07:07:40.341Z,225.00
2018-03-26T07:08:40.309Z,230.63
2018-03-26T07:09:40.681Z,241.88
2018-03-26T07:10:40.276Z,253.13
2018-03-26T07:11:40.295Z,258.75
2018-03-26T07:12:40.277Z,270.00
2018-03-26T07:13:40.209Z,275.63
2018-03-26T07:14:40.186Z,281.25
2018-03-26T07:15:40.212Z,298.13
2018-03-26T07:16:40.149Z,298.13
2018-03-26T07:17:40.170Z,298.13
2018-03-26T07:18:40.104Z,303.75
2018-03-26T07:19:40.093Z,309.38
2018-03-26T07:20:40.375Z,315.00
2018-03-26T07:21:40.152Z,309.38
2018-03-26T07:22:40.028Z,303.75
2018-03-26T07:23:40.022Z,303.75
2018-03-26T07:24:40.007Z,298.13
2018-03-26T07:25:39.973Z,303.75
2018-03-26T07:26:40.607Z,309.38
2018-03-26T07:27:39.935Z,320.63
2018-03-26T07:28:39.926Z,320.63
2018-03-26T07:29:39.900Z,326.25
2018-03-26T07:30:39.879Z,337.50
2018-03-26T07:31:39.863Z,360.00
2018-03-26T07:32:39.956Z,382.50
2018-03-26T07:33:40.231Z,360.00
2018-03-26T07:34:39.834Z,354.38
2018-03-26T07:35:39.860Z,348.75
2018-03-26T07:36:39.793Z,326.25
2018-03-26T07:37:39.765Z,292.50
2018-03-26T07:38:39.758Z,286.88
2018-03-26T07:39:40.025Z,292.50
2018-03-26T07:40:39.743Z,275.63
2018-03-26T07:41:39.765Z,292.50
2018-03-26T07:42:39.674Z,275.63
2018-03-26T07:43:39.667Z,270.00
2018-03-26T07:44:39.643Z,292.50
2018-03-26T07:45:39.933Z,309.38
2018-03-26T07:46:39.612Z,292.50
2018-03-26T07:47:39.762Z,292.50
2018-03-26T07:48:39.683Z,292.50
2018-03-26T07:49:39.567Z,286.88
2018-03-26T07:50:39.539Z,281.25
2018-03-26T07:51:39.822Z,286.88
2018-03-26T07:52:39.502Z,286.88
2018-03-26T07:53:39.584Z,286.88
2018-03-26T07:54:39.467Z,292.50
2018-03-26T07:55:39.457Z,303.75
2018-03-26T07:56:39.448Z,331.88
2018-03-26T07:57:39.725Z,326.25
2018-03-26T07:58:39.454Z,309.38
2018-03-26T07:59:39.393Z,309.38
2018-03-26T08:00:39.421Z,303.75
2018-03-26T08:01:39.436Z,309.38
2018-03-26T08:02:39.343Z,298.13
2018-03-26T08:03:39.623Z,292.50
2018-03-26T08:04:39.407Z,286.88
2018-03-26T08:05:39.346Z,292.50
2018-03-26T08:06:39.295Z,309.38
2018-03-26T08:07:39.364Z,298.13
2018-03-26T08:08:39.241Z,281.25
2018-03-26T08:09:39.528Z,281.25
2018-03-26T08:10:39.429Z,281.25
2018-03-26T08:11:39.195Z,275.63
2018-03-26T08:12:39.231Z,264.38
2018-03-26T08:13:39.170Z,264.38
2018-03-26T08:14:39.157Z,270.00
2018-03-26T08:15:39.433Z,281.25
2018-03-26T08:16:39.174Z,292.50
2018-03-26T08:17:39.161Z,315.00
2018-03-26T08:18:39.071Z,315.00
2018-03-26T08:19:39.086Z,315.00
2018-03-26T08:20:39.039Z,320.63
2018-03-26T08:21:39.372Z,320.63
2018-03-26T08:22:39.018Z,320.63
2018-03-26T08:23:38.989Z,326.25
2018-03-26T08:24:39.016Z,331.88
2018-03-26T08:25:39.000Z,343.13
2018-03-26T08:26:38.993Z,354.38
2018-03-26T08:27:39.241Z,365.63
2018-03-26T08:28:38.904Z,382.50
2018-03-26T08:29:38.892Z,388.13
2018-03-26T08:30:39.008Z,416.25
2018-03-26T08:31:38.956Z,405.00
2018-03-26T08:32:38.902Z,399.38
2018-03-26T08:33:39.200Z,382.50
2018-03-26T08:34:38.827Z,405.00
2018-03-26T08:35:38.812Z,500.63
2018-03-26T08:36:38.862Z,556.88
2018-03-26T08:37:38.783Z,579.38
2018-03-26T08:38:38.918Z,534.38
2018-03-26T08:39:38.759Z,630.00
2018-03-26T08:40:38.755Z,641.25
2018-03-26T08:41:39.182Z,590.63
2018-03-26T08:42:38.710Z,573.75
2018-03-26T08:43:38.704Z,495.00
2018-03-26T08:44:38.996Z,438.75
2018-03-26T08:45:38.673Z,371.25
2018-03-26T08:46:38.782Z,433.13
2018-03-26T08:47:38.765Z,511.88
2018-03-26T08:48:38.691Z,506.25
2018-03-26T08:49:38.622Z,466.88
2018-03-26T08:50:38.908Z,466.88
2018-03-26T08:51:38.697Z,438.75
2018-03-26T08:52:38.683Z,405.00
2018-03-26T08:53:38.722Z,511.88
2018-03-26T08:54:38.564Z,506.25
2018-03-26T08:55:38.548Z,500.63
2018-03-26T08:56:38.688Z,523.13
2018-03-26T08:57:41.863Z,540.00
2018-03-26T08:58:38.591Z,568.13
2018-03-26T08:59:38.489Z,641.25
2018-03-26T09:00:38.481Z,1243.13
2018-03-26T09:01:38.494Z,2019.38
2018-03-26T09:02:38.462Z,2244.38
2018-03-26T09:03:41.144Z,2306.25
2018-03-26T09:04:38.434Z,2351.25
2018-03-26T09:05:38.480Z,2289.38
2018-03-26T09:06:38.402Z,2323.13
2018-03-26T09:07:38.398Z,2188.13
2018-03-26T09:08:38.384Z,2463.75
2018-03-26T09:09:38.722Z,2610.00
2018-03-26T09:10:38.429Z,2323.13
2018-03-26T09:11:38.436Z,2227.50
2018-03-26T09:12:39.753Z,1957.50
2018-03-26T09:13:38.427Z,2570.63
2018-03-26T09:14:38.308Z,2868.75
2018-03-26T09:15:38.621Z,2700.00
2018-03-26T09:16:38.294Z,2683.13
2018-03-26T09:17:38.590Z,1271.25
2018-03-26T09:18:38.353Z,1890.00
2018-03-26T09:19:38.295Z,1822.50
2018-03-26T09:20:38.297Z,2655.00
2018-03-26T09:21:38.525Z,2655.00
2018-03-26T09:22:38.219Z,2818.13
2018-03-26T09:23:38.209Z,2790.00
2018-03-26T09:24:38.201Z,2570.63
2018-03-26T09:25:38.242Z,2086.88
2018-03-26T09:26:38.177Z,1018.13
2018-03-26T09:27:38.514Z,534.38
2018-03-26T09:28:38.158Z,376.88
2018-03-26T09:29:38.148Z,270.00
2018-03-26T09:30:38.134Z,247.50
2018-03-26T09:31:38.124Z,270.00
2018-03-26T09:32:38.117Z,1642.50
2018-03-26T09:33:38.441Z,2891.25
2018-03-26T09:34:38.463Z,2953.13
2018-03-26T09:35:38.068Z,2947.50
2018-03-26T09:36:38.082Z,3003.75
2018-03-26T09:37:38.065Z,3093.75
2018-03-26T09:38:38.097Z,3133.13
2018-03-26T09:39:38.348Z,3093.75
2018-03-26T09:40:38.068Z,3054.38
2018-03-26T09:41:38.017Z,2975.63
2018-03-26T09:42:37.997Z,3088.13
2018-03-26T09:43:37.985Z,2885.63
2018-03-26T09:44:37.987Z,2958.75
2018-03-26T09:45:38.425Z,956.25
2018-03-26T09:46:37.979Z,714.38
2018-03-26T09:47:37.945Z,2896.88
2018-03-26T09:48:37.933Z,2491.88
2018-03-26T09:49:38.021Z,2418.75
2018-03-26T09:50:37.915Z,2334.38
2018-03-26T09:51:38.308Z,2851.88
2018-03-26T09:52:38.215Z,3043.13
2018-03-26T09:53:37.994Z,2986.88
2018-03-26T09:54:37.873Z,2863.13
2018-03-26T09:55:37.898Z,3088.13
2018-03-26T09:56:37.847Z,3031.88
2018-03-26T09:57:37.947Z,3071.25
2018-03-26T09:58:37.840Z,3110.63
2018-03-26T09:59:37.904Z,3183.75
2018-03-26T10:00:37.929Z,3065.63
2018-03-26T10:01:37.863Z,1620.00
2018-03-26T10:02:37.798Z,1125.00
2018-03-26T10:03:38.085Z,568.13
2018-03-26T10:04:37.788Z,1996.88
2018-03-26T10:05:37.871Z,2745.00
2018-03-26T10:06:37.757Z,663.75
2018-03-26T10:07:37.907Z,3251.25
2018-03-26T10:09:37.831Z,703.13
2018-03-26T10:10:38.937Z,1755.00
2018-03-26T10:11:37.720Z,2790.00
2018-03-26T10:12:37.785Z,2475.00
2018-03-26T10:13:37.695Z,3037.50
2018-03-26T10:14:37.683Z,3003.75
2018-03-26T10:15:37.727Z,3071.25
2018-03-26T10:16:37.967Z,2896.88
2018-03-26T10:17:37.655Z,2773.13
2018-03-26T10:18:37.662Z,2823.75
2018-03-26T10:19:37.645Z,2953.13
2018-03-26T10:20:37.621Z,2885.63
2018-03-26T10:21:37.663Z,2643.75
2018-03-26T10:22:38.324Z,2610.00
2018-03-26T10:23:37.913Z,2587.50
2018-03-26T10:24:37.954Z,2908.13
2018-03-26T10:25:38.486Z,2986.88
2018-03-26T10:26:37.854Z,2992.50
2018-03-26T10:27:37.605Z,2925.00
2018-03-26T10:28:37.864Z,3105.00
2018-03-26T10:29:37.545Z,3127.50
2018-03-26T10:30:37.536Z,2992.50
2018-03-26T10:31:37.530Z,3009.38
2018-03-26T10:32:37.565Z,2851.88
2018-03-26T10:33:37.520Z,2818.13
2018-03-26T10:34:37.798Z,2885.63
2018-03-26T10:35:37.505Z,2266.88
2018-03-26T10:36:37.611Z,1383.75
2018-03-26T10:37:37.522Z,1068.75
2018-03-26T10:38:37.469Z,568.13
2018-03-26T10:39:37.606Z,489.38
2018-03-26T10:40:37.772Z,455.63
2018-03-26T10:41:37.541Z,545.63
2018-03-26T10:42:37.541Z,517.50
2018-03-26T10:43:37.430Z,731.25
2018-03-26T10:44:37.535Z,506.25
2018-03-26T10:45:37.412Z,410.63
2018-03-26T10:46:37.706Z,410.63
2018-03-26T10:47:37.512Z,399.38
2018-03-26T10:48:37.389Z,393.75
2018-03-26T10:49:37.495Z,410.63
2018-03-26T10:50:38.032Z,466.88
2018-03-26T10:51:37.449Z,669.38
2018-03-26T10:52:37.864Z,871.88
2018-03-26T10:53:37.628Z,1158.75
2018-03-26T10:54:37.641Z,984.38
2018-03-26T10:55:37.999Z,1541.25
2018-03-26T10:56:37.324Z,2368.13
2018-03-26T10:57:37.298Z,2643.75
2018-03-26T10:58:37.619Z,2677.50
2018-03-26T10:59:37.310Z,2722.50
2018-03-26T11:00:37.793Z,2761.88
2018-03-26T11:01:37.250Z,2649.38
2018-03-26T11:02:37.246Z,2593.13
2018-03-26T11:03:37.241Z,2514.38
2018-03-26T11:04:37.727Z,2452.50
2018-03-26T11:05:37.285Z,2520.00
2018-03-26T11:06:37.411Z,2722.50
2018-03-26T11:07:37.328Z,2542.50
2018-03-26T11:08:37.304Z,2559.38
2018-03-26T11:09:37.188Z,2733.75
2018-03-26T11:10:37.186Z,2553.75
2018-03-26T11:11:37.169Z,1648.13
2018-03-26T11:12:37.421Z,1158.75
2018-03-26T11:13:37.147Z,1006.88
2018-03-26T11:14:37.141Z,866.25
2018-03-26T11:15:37.139Z,815.63
2018-03-26T11:16:37.456Z,798.75
2018-03-26T11:17:37.123Z,821.25
2018-03-26T11:18:37.158Z,905.63
2018-03-26T11:19:37.107Z,939.38
2018-03-26T11:20:37.089Z,939.38
2018-03-26T11:21:37.629Z,911.25
2018-03-26T11:22:37.082Z,894.38
2018-03-26T11:23:37.372Z,826.88
2018-03-26T11:24:37.055Z,838.13
2018-03-26T11:25:37.057Z,826.88
2018-03-26T11:26:37.044Z,978.75
2018-03-26T11:27:37.146Z,1046.25
2018-03-26T11:28:37.028Z,1063.13
2018-03-26T11:29:37.337Z,1012.50
2018-03-26T11:30:37.031Z,928.13
2018-03-26T11:31:37.114Z,697.50
2018-03-26T11:32:36.996Z,596.25
2018-03-26T11:33:36.981Z,843.75
2018-03-26T11:34:36.983Z,675.00
2018-03-26T11:35:37.004Z,770.63
2018-03-26T11:36:37.711Z,691.88
2018-03-26T11:37:37.788Z,720.00
2018-03-26T11:38:37.213Z,579.38
2018-03-26T11:39:38.970Z,618.75
2018-03-26T11:40:37.116Z,624.38
2018-03-26T11:41:36.918Z,556.88
2018-03-26T11:42:36.918Z,601.88
2018-03-26T11:43:37.242Z,551.25
2018-03-26T11:44:37.004Z,466.88
2018-03-26T11:45:36.894Z,399.38
2018-03-26T11:46:36.878Z,393.75
2018-03-26T11:47:36.876Z,433.13
2018-03-26T11:48:36.936Z,450.00
2018-03-26T11:49:36.956Z,438.75
2018-03-26T11:50:36.832Z,455.63
2018-03-26T11:51:36.825Z,523.13
2018-03-26T11:52:36.821Z,568.13
2018-03-26T11:53:36.908Z,534.38
2018-03-26T11:54:37.110Z,511.88
2018-03-26T11:55:36.837Z,495.00
2018-03-26T11:56:36.759Z,523.13
2018-03-26T11:57:36.766Z,573.75
2018-03-26T11:58:36.791Z,630.00
2018-03-26T11:59:36.746Z,658.13
2018-03-26T12:00:37.020Z,635.63
2018-03-26T12:01:36.717Z,590.63
2018-03-26T12:02:36.730Z,590.63
2018-03-26T12:03:36.684Z,556.88
2018-03-26T12:04:36.722Z,523.13
2018-03-26T12:05:36.658Z,489.38
2018-03-26T12:06:36.938Z,500.63
2018-03-26T12:07:36.624Z,511.88
2018-03-26T12:08:36.640Z,517.50
2018-03-26T12:09:36.619Z,523.13
2018-03-26T12:10:36.656Z,601.88
2018-03-26T12:11:36.580Z,562.50
2018-03-26T12:12:36.658Z,551.25
2018-03-26T12:13:36.852Z,534.38
2018-03-26T12:14:36.600Z,585.00
2018-03-26T12:15:36.579Z,596.25
2018-03-26T12:16:36.513Z,478.13
2018-03-26T12:17:36.490Z,421.88
2018-03-26T12:18:36.481Z,421.88
2018-03-26T12:19:36.466Z,433.13
2018-03-26T12:20:36.758Z,495.00
2018-03-26T12:21:36.535Z,562.50
2018-03-26T12:22:36.421Z,607.50
2018-03-26T12:23:36.415Z,590.63
2018-03-26T12:24:37.105Z,630.00
2018-03-26T12:25:36.537Z,613.13
2018-03-26T12:26:36.674Z,630.00
2018-03-26T12:27:36.355Z,630.00
2018-03-26T12:28:36.339Z,618.75
2018-03-26T12:29:36.324Z,635.63
2018-03-26T12:30:39.004Z,613.13
2018-03-26T12:31:36.288Z,585.00
2018-03-26T12:32:36.573Z,562.50
2018-03-26T12:33:36.346Z,590.63
2018-03-26T12:34:36.430Z,585.00
2018-03-26T12:35:36.234Z,551.25
2018-03-26T12:36:36.320Z,523.13
2018-03-26T12:37:36.211Z,523.13
2018-03-26T12:38:36.490Z,500.63
2018-03-26T12:39:36.172Z,483.75
2018-03-26T12:41:36.189Z,450.00
2018-03-26T12:42:36.127Z,433.13
2018-03-26T12:43:36.205Z,416.25
2018-03-26T12:44:36.403Z,433.13
2018-03-26T12:45:36.083Z,455.63
2018-03-26T12:46:36.174Z,466.88
2018-03-26T12:47:36.086Z,483.75
2018-03-26T12:48:36.040Z,500.63
2018-03-26T12:49:36.084Z,506.25
2018-03-26T12:50:36.328Z,506.25
2018-03-26T12:51:36.009Z,495.00
2018-03-26T12:52:35.991Z,478.13
2018-03-26T12:53:35.979Z,478.13
2018-03-26T12:54:35.950Z,483.75
2018-03-26T12:55:35.979Z,478.13
2018-03-26T12:56:36.224Z,478.13
2018-03-26T12:57:35.900Z,489.38